Del Norte — WDC2280 — position and weather

sailwx.info

Track history (hours):
 
Tides and Currents Weather Stations Pressure Air Temp Water Temp Dewpoint Dewpoint Depression Visibility Wind Speed Wind Dir Waves Ship Positions

Del Norte

Owner: Golden Gate Bridge,Hwy & Transportation District, Larkspur, CA. More information available from US FCC via Universal Licensing System and Coast Guard Vessel Documentation Center.

Last reported at 2016-Jul-30 03:30 UTC. Time now 2016-Jul-30 07:23 UTC.
Position N 37°57' W 122°31'.

Length 48 m.

Type: High speed craft. MMSI: 366990520.

Date/timePositionNaut miles runAvg speedWind from/ knotsBaromVisibWave heightAir tempDewpointWater temp
2016-Jul-30 03:30N 37°57' W 122°31'8 8.6
2016-Jul-30 02:34N 37°51' W 122°24'8 8.0
2016-Jul-30 01:33N 37°57' W 122°30'7 6.9
2016-Jul-30 00:34N 37°51' W 122°25'4 3.7
2016-Jul-29 23:34N 37°48' W 122°23'1010.4
2016-Jul-29 22:33N 37°57' W 122°30'4 4.4
2016-Jul-29 21:33N 37°54' W 122°26'4 4.4
2016-Jul-29 20:33N 37°57' W 122°31'8 8.3
2016-Jul-29 19:33N 37°50' W 122°24'8 8.2
2016-Jul-29 18:33N 37°57' W 122°30'7 6.9
2016-Jul-29 17:33N 37°52' W 122°25'6 5.8
2016-Jul-29 16:34N 37°56' W 122°29'2 1.7
2016-Jul-29 15:34N 37°55' W 122°28'8 8.0
2016-Jul-29 14:33N 37°48' W 122°24'3 3.3
2016-Jul-29 13:34N 37°51' W 122°24'8 7.6
2016-Jul-29 12:33N 37°57' W 122°30'10 1.3
2016-Jul-29 04:34N 37°48' W 122°24'9 8.8
2016-Jul-29 03:34N 37°56' W 122°28'1 1.0
2016-Jul-29 02:33N 37°56' W 122°30'10 9.7
2016-Jul-29 01:34N 37°48' W 122°23'1010.4
2016-Jul-29 00:33N 37°57' W 122°30'7 7.2
2016-Jul-28 23:34N 37°51' W 122°25'3 3.5
2016-Jul-28 22:33N 37°48' W 122°24'1010.5
2016-Jul-28 21:34N 37°57' W 122°31'0 0.0
2016-Jul-28 20:34N 37°57' W 122°31'9 9.5
2016-Jul-28 19:34N 37°49' W 122°23'9 9.5
2016-Jul-28 18:33N 37°57' W 122°30'7 7.0
2016-Jul-28 17:33N 37°51' W 122°25'6 5.8
2016-Jul-28 16:34N 37°56' W 122°29'2 1.6
2016-Jul-28 15:33N 37°55' W 122°28'8 7.9
2016-Jul-28 14:34N 37°48' W 122°23'3 2.9
2016-Jul-28 13:33N 37°51' W 122°24'8 7.8
2016-Jul-28 12:33N 37°57' W 122°31'8 0.8
2016-Jul-28 02:33N 37°51' W 122°24'8 8.1
2016-Jul-28 01:33N 37°57' W 122°30'4 4.2
2016-Jul-28 00:33N 37°54' W 122°27'6 6.5
2016-Jul-27 23:33N 37°48' W 122°23'1010.4
2016-Jul-27 22:34N 37°57' W 122°30'4 4.4
2016-Jul-27 21:33N 37°54' W 122°26'4 4.4
2016-Jul-27 20:33N 37°57' W 122°31'9 9.0
2016-Jul-27 19:33N 37°50' W 122°23'9 9.0
2016-Jul-27 18:34N 37°57' W 122°30'7 7.2
2016-Jul-27 17:33N 37°51' W 122°25'6 6.3
2016-Jul-27 16:34N 37°56' W 122°29'1 0.9
2016-Jul-27 15:33N 37°56' W 122°28'9 8.9
2016-Jul-27 14:33N 37°48' W 122°23'4 3.5
2016-Jul-27 13:33N 37°51' W 122°24'7 7.3
2016-Jul-27 12:33N 37°57' W 122°30'0 0.0
2016-Jul-27 05:06N 37°57' W 122°30'1019.1
2016-Jul-27 04:34N 37°48' W 122°24'9 8.8
2016-Jul-27 03:33N 37°56' W 122°28'1 1.0
2016-Jul-27 02:33N 37°56' W 122°30'10 9.6
2016-Jul-27 01:33N 37°48' W 122°24'1010.4
2016-Jul-27 00:33N 37°57' W 122°30'7 6.9
2016-Jul-26 23:34N 37°51' W 122°25'4 3.8
2016-Jul-26 22:33N 37°48' W 122°24'1010.4
2016-Jul-26 21:33N 37°57' W 122°31'0 0.0
2016-Jul-26 20:33N 37°57' W 122°31'8 8.4
2016-Jul-26 19:33N 37°50' W 122°24'8 8.4
2016-Jul-26 18:34N 37°57' W 122°30'7 7.3
2016-Jul-26 17:33N 37°51' W 122°25'6 6.2
2016-Jul-26 16:34N 37°56' W 122°29'1 1.3
2016-Jul-26 15:33N 37°55' W 122°28'8 8.4
2016-Jul-26 14:33N 37°48' W 122°24'4 4.0
2016-Jul-26 13:34N 37°52' W 122°24'7 7.0
2016-Jul-26 12:33N 37°57' W 122°30'10 1.3
2016-Jul-26 04:33N 37°48' W 122°24'9 9.1
2016-Jul-26 03:33N 37°56' W 122°29'1 1.3
2016-Jul-26 02:33N 37°57' W 122°30'1010.2
2016-Jul-26 01:33N 37°48' W 122°24'1010.4
2016-Jul-26 00:33N 37°57' W 122°30'7 7.3
2016-Jul-25 23:34N 37°51' W 122°25'3 3.5
2016-Jul-25 22:34N 37°48' W 122°24'1010.4
2016-Jul-25 21:34N 37°57' W 122°31'0 0.0
2016-Jul-25 20:32N 37°57' W 122°31'8 8.5
2016-Jul-25 19:34N 37°50' W 122°24'8 7.9
2016-Jul-25 18:31N 37°57' W 122°30'7 7.6
2016-Jul-25 17:33N 37°51' W 122°25'6 6.2
2016-Jul-25 16:34N 37°56' W 122°29'1 1.2
2016-Jul-25 15:33N 37°55' W 122°28'8 8.3
2016-Jul-25 14:34N 37°48' W 122°23'4 3.9
2016-Jul-25 13:34N 37°52' W 122°24'7 7.0
2016-Jul-25 12:33N 37°57' W 122°31'0 0.0
2016-Jul-25 01:06N 37°56' W 122°30'1018.6
2016-Jul-25 00:33N 37°48' W 122°24'5 5.4
2016-Jul-24 23:33N 37°51' W 122°29'5 5.3
2016-Jul-24 22:32N 37°48' W 122°24'5 5.0
2016-Jul-24 21:33N 37°51' W 122°28'1 0.6
2016-Jul-24 20:34N 37°51' W 122°29'5 5.4
2016-Jul-24 19:34N 37°48' W 122°24'5 4.8
2016-Jul-24 18:33N 37°51' W 122°28'6 0.3
2016-Jul-24 01:23N 37°57' W 122°31'1012.6
2016-Jul-24 00:33N 37°48' W 122°24'5 5.5
2016-Jul-23 23:33N 37°51' W 122°29'5 5.4
2016-Jul-23 22:34N 37°48' W 122°24'5 4.7
2016-Jul-23 21:33N 37°51' W 122°28'1 0.7
2016-Jul-23 20:33N 37°51' W 122°29'5 5.4
2016-Jul-23 19:34N 37°48' W 122°23'5 4.7
2016-Jul-23 18:34N 37°52' W 122°27'2 0.1
2016-Jul-23 02:34N 37°52' W 122°24'7 6.9
2016-Jul-23 01:33N 37°57' W 122°30'7 6.7
2016-Jul-23 00:34N 37°52' W 122°25'4 4.0
2016-Jul-22 23:34N 37°48' W 122°24'1010.4
2016-Jul-22 22:33N 37°57' W 122°30'4 4.2
2016-Jul-22 21:33N 37°54' W 122°27'4 4.2
2016-Jul-22 20:33N 37°57' W 122°31'9 8.6
2016-Jul-22 19:33N 37°50' W 122°24'9 8.6
2016-Jul-22 18:33N 37°57' W 122°30'7 7.2
2016-Jul-22 17:34N 37°51' W 122°25'5 5.2
2016-Jul-22 16:33N 37°56' W 122°28'0 0.4
2016-Jul-22 15:34N 37°56' W 122°28'9 8.9
2016-Jul-22 14:33N 37°48' W 122°24'4 4.2
2016-Jul-22 13:33N 37°52' W 122°24'7 6.8
2016-Jul-22 12:33N 37°57' W 122°31'0 0.0
2016-Jul-22 03:05N 37°57' W 122°31'713.7
2016-Jul-22 02:34N 37°51' W 122°24'7 7.1
2016-Jul-22 01:33N 37°57' W 122°30'6 6.0
2016-Jul-22 00:34N 37°52' W 122°25'5 4.5
2016-Jul-21 23:33N 37°48' W 122°23'1010.4
2016-Jul-21 22:33N 37°57' W 122°30'4 4.4
2016-Jul-21 21:33N 37°54' W 122°26'4 4.3
2016-Jul-21 20:33N 37°57' W 122°30'9 9.3
2016-Jul-21 19:34N 37°49' W 122°24'9 9.2
2016-Jul-21 18:33N 37°57' W 122°30'6 6.0
2016-Jul-21 17:33N 37°52' W 122°25'5 4.8
2016-Jul-21 16:33N 37°56' W 122°29'2 2.0
2016-Jul-21 15:33N 37°55' W 122°27'8 7.6
2016-Jul-21 14:33N 37°48' W 122°24'4 4.0
2016-Jul-21 13:33N 37°52' W 122°24'7 6.9
2016-Jul-21 12:33N 37°57' W 122°31'6 0.6
2016-Jul-21 02:33N 37°52' W 122°25'6 6.2
2016-Jul-21 01:33N 37°57' W 122°30'7 6.8
2016-Jul-21 00:34N 37°52' W 122°25'4 4.0
2016-Jul-20 23:33N 37°48' W 122°24'1010.4
2016-Jul-20 22:33N 37°57' W 122°30'5 4.7
2016-Jul-20 21:33N 37°53' W 122°26'5 4.7
2016-Jul-20 20:33N 37°57' W 122°30'9 9.0
2016-Jul-20 19:33N 37°50' W 122°23'9 8.9
2016-Jul-20 18:33N 37°57' W 122°30'6 6.4
2016-Jul-20 17:34N 37°52' W 122°25'4 4.4
2016-Jul-20 16:33N 37°56' W 122°28'0 0.5
2016-Jul-20 15:34N 37°56' W 122°29'9 9.0
2016-Jul-20 14:34N 37°48' W 122°23'3 3.2
2016-Jul-20 13:33N 37°51' W 122°24'8 7.5
2016-Jul-20 12:33N 37°57' W 122°31'  
Track history (hours):
 
Tides and Currents Weather Stations Pressure Air Temp Water Temp Dewpoint Dewpoint Depression Visibility Wind Speed Wind Dir Waves Ship Positions

Del Norte

Owner: Golden Gate Bridge,Hwy & Transportation District, Larkspur, CA. More information available from US FCC via Universal Licensing System and Coast Guard Vessel Documentation Center.

Last reported at 2016-Jul-30 03:30 UTC. Time now 2016-Jul-30 07:23 UTC.
Position N 37°57' W 122°31'.

Length 48 m.

Type: High speed craft. MMSI: 366990520.

Date/timePositionNaut miles runAvg speedWind from/ knotsBaromVisibWave heightAir tempDewpointWater temp
2016-Jul-30 03:30N 37°57' W 122°31'8 8.6
2016-Jul-30 02:34N 37°51' W 122°24'8 8.0
2016-Jul-30 01:33N 37°57' W 122°30'7 6.9
2016-Jul-30 00:34N 37°51' W 122°25'4 3.7
2016-Jul-29 23:34N 37°48' W 122°23'1010.4
2016-Jul-29 22:33N 37°57' W 122°30'4 4.4
2016-Jul-29 21:33N 37°54' W 122°26'4 4.4
2016-Jul-29 20:33N 37°57' W 122°31'8 8.3
2016-Jul-29 19:33N 37°50' W 122°24'8 8.2
2016-Jul-29 18:33N 37°57' W 122°30'7 6.9
2016-Jul-29 17:33N 37°52' W 122°25'6 5.8
2016-Jul-29 16:34N 37°56' W 122°29'2 1.7
2016-Jul-29 15:34N 37°55' W 122°28'8 8.0
2016-Jul-29 14:33N 37°48' W 122°24'3 3.3
2016-Jul-29 13:34N 37°51' W 122°24'8 7.6
2016-Jul-29 12:33N 37°57' W 122°30'10 1.3
2016-Jul-29 04:34N 37°48' W 122°24'9 8.8
2016-Jul-29 03:34N 37°56' W 122°28'1 1.0
2016-Jul-29 02:33N 37°56' W 122°30'10 9.7
2016-Jul-29 01:34N 37°48' W 122°23'1010.4
2016-Jul-29 00:33N 37°57' W 122°30'7 7.2
2016-Jul-28 23:34N 37°51' W 122°25'3 3.5
2016-Jul-28 22:33N 37°48' W 122°24'1010.5
2016-Jul-28 21:34N 37°57' W 122°31'0 0.0
2016-Jul-28 20:34N 37°57' W 122°31'9 9.5
2016-Jul-28 19:34N 37°49' W 122°23'9 9.5
2016-Jul-28 18:33N 37°57' W 122°30'7 7.0
2016-Jul-28 17:33N 37°51' W 122°25'6 5.8
2016-Jul-28 16:34N 37°56' W 122°29'2 1.6
2016-Jul-28 15:33N 37°55' W 122°28'8 7.9
2016-Jul-28 14:34N 37°48' W 122°23'3 2.9
2016-Jul-28 13:33N 37°51' W 122°24'8 7.8
2016-Jul-28 12:33N 37°57' W 122°31'8 0.8
2016-Jul-28 02:33N 37°51' W 122°24'8 8.1
2016-Jul-28 01:33N 37°57' W 122°30'4 4.2
2016-Jul-28 00:33N 37°54' W 122°27'6 6.5
2016-Jul-27 23:33N 37°48' W 122°23'1010.4
2016-Jul-27 22:34N 37°57' W 122°30'4 4.4
2016-Jul-27 21:33N 37°54' W 122°26'4 4.4
2016-Jul-27 20:33N 37°57' W 122°31'9 9.0
2016-Jul-27 19:33N 37°50' W 122°23'9 9.0
2016-Jul-27 18:34N 37°57' W 122°30'7 7.2
2016-Jul-27 17:33N 37°51' W 122°25'6 6.3
2016-Jul-27 16:34N 37°56' W 122°29'1 0.9
2016-Jul-27 15:33N 37°56' W 122°28'9 8.9
2016-Jul-27 14:33N 37°48' W 122°23'4 3.5
2016-Jul-27 13:33N 37°51' W 122°24'7 7.3
2016-Jul-27 12:33N 37°57' W 122°30'0 0.0
2016-Jul-27 05:06N 37°57' W 122°30'1019.1
2016-Jul-27 04:34N 37°48' W 122°24'9 8.8
2016-Jul-27 03:33N 37°56' W 122°28'1 1.0
2016-Jul-27 02:33N 37°56' W 122°30'10 9.6
2016-Jul-27 01:33N 37°48' W 122°24'1010.4
2016-Jul-27 00:33N 37°57' W 122°30'7 6.9
2016-Jul-26 23:34N 37°51' W 122°25'4 3.8
2016-Jul-26 22:33N 37°48' W 122°24'1010.4
2016-Jul-26 21:33N 37°57' W 122°31'0 0.0
2016-Jul-26 20:33N 37°57' W 122°31'8 8.4
2016-Jul-26 19:33N 37°50' W 122°24'8 8.4
2016-Jul-26 18:34N 37°57' W 122°30'7 7.3
2016-Jul-26 17:33N 37°51' W 122°25'6 6.2
2016-Jul-26 16:34N 37°56' W 122°29'1 1.3
2016-Jul-26 15:33N 37°55' W 122°28'8 8.4
2016-Jul-26 14:33N 37°48' W 122°24'4 4.0
2016-Jul-26 13:34N 37°52' W 122°24'7 7.0
2016-Jul-26 12:33N 37°57' W 122°30'10 1.3
2016-Jul-26 04:33N 37°48' W 122°24'9 9.1
2016-Jul-26 03:33N 37°56' W 122°29'1 1.3
2016-Jul-26 02:33N 37°57' W 122°30'1010.2
2016-Jul-26 01:33N 37°48' W 122°24'1010.4
2016-Jul-26 00:33N 37°57' W 122°30'7 7.3
2016-Jul-25 23:34N 37°51' W 122°25'3 3.5
2016-Jul-25 22:34N 37°48' W 122°24'1010.4
2016-Jul-25 21:34N 37°57' W 122°31'0 0.0
2016-Jul-25 20:32N 37°57' W 122°31'8 8.5
2016-Jul-25 19:34N 37°50' W 122°24'8 7.9
2016-Jul-25 18:31N 37°57' W 122°30'7 7.6
2016-Jul-25 17:33N 37°51' W 122°25'6 6.2
2016-Jul-25 16:34N 37°56' W 122°29'1 1.2
2016-Jul-25 15:33N 37°55' W 122°28'8 8.3
2016-Jul-25 14:34N 37°48' W 122°23'4 3.9
2016-Jul-25 13:34N 37°52' W 122°24'7 7.0
2016-Jul-25 12:33N 37°57' W 122°31'0 0.0
2016-Jul-25 01:06N 37°56' W 122°30'1018.6
2016-Jul-25 00:33N 37°48' W 122°24'5 5.4
2016-Jul-24 23:33N 37°51' W 122°29'5 5.3
2016-Jul-24 22:32N 37°48' W 122°24'5 5.0
2016-Jul-24 21:33N 37°51' W 122°28'1 0.6
2016-Jul-24 20:34N 37°51' W 122°29'5 5.4
2016-Jul-24 19:34N 37°48' W 122°24'5 4.8
2016-Jul-24 18:33N 37°51' W 122°28'6 0.3
2016-Jul-24 01:23N 37°57' W 122°31'1012.6
2016-Jul-24 00:33N 37°48' W 122°24'5 5.5
2016-Jul-23 23:33N 37°51' W 122°29'5 5.4
2016-Jul-23 22:34N 37°48' W 122°24'5 4.7
2016-Jul-23 21:33N 37°51' W 122°28'1 0.7
2016-Jul-23 20:33N 37°51' W 122°29'5 5.4
2016-Jul-23 19:34N 37°48' W 122°23'5 4.7
2016-Jul-23 18:34N 37°52' W 122°27'2 0.1
2016-Jul-23 02:34N 37°52' W 122°24'7 6.9
2016-Jul-23 01:33N 37°57' W 122°30'7 6.7
2016-Jul-23 00:34N 37°52' W 122°25'4 4.0
2016-Jul-22 23:34N 37°48' W 122°24'1010.4
2016-Jul-22 22:33N 37°57' W 122°30'4 4.2
2016-Jul-22 21:33N 37°54' W 122°27'4 4.2
2016-Jul-22 20:33N 37°57' W 122°31'9 8.6
2016-Jul-22 19:33N 37°50' W 122°24'9 8.6
2016-Jul-22 18:33N 37°57' W 122°30'7 7.2
2016-Jul-22 17:34N 37°51' W 122°25'5 5.2
2016-Jul-22 16:33N 37°56' W 122°28'0 0.4
2016-Jul-22 15:34N 37°56' W 122°28'9 8.9
2016-Jul-22 14:33N 37°48' W 122°24'4 4.2
2016-Jul-22 13:33N 37°52' W 122°24'7 6.8
2016-Jul-22 12:33N 37°57' W 122°31'0 0.0
2016-Jul-22 03:05N 37°57' W 122°31'713.7
2016-Jul-22 02:34N 37°51' W 122°24'7 7.1
2016-Jul-22 01:33N 37°57' W 122°30'6 6.0
2016-Jul-22 00:34N 37°52' W 122°25'5 4.5
2016-Jul-21 23:33N 37°48' W 122°23'1010.4
2016-Jul-21 22:33N 37°57' W 122°30'4 4.4
2016-Jul-21 21:33N 37°54' W 122°26'4 4.3
2016-Jul-21 20:33N 37°57' W 122°30'9 9.3
2016-Jul-21 19:34N 37°49' W 122°24'9 9.2
2016-Jul-21 18:33N 37°57' W 122°30'6 6.0
2016-Jul-21 17:33N 37°52' W 122°25'5 4.8
2016-Jul-21 16:33N 37°56' W 122°29'2 2.0
2016-Jul-21 15:33N 37°55' W 122°27'8 7.6
2016-Jul-21 14:33N 37°48' W 122°24'4 4.0
2016-Jul-21 13:33N 37°52' W 122°24'7 6.9
2016-Jul-21 12:33N 37°57' W 122°31'6 0.6
2016-Jul-21 02:33N 37°52' W 122°25'6 6.2
2016-Jul-21 01:33N 37°57' W 122°30'7 6.8
2016-Jul-21 00:34N 37°52' W 122°25'4 4.0
2016-Jul-20 23:33N 37°48' W 122°24'1010.4
2016-Jul-20 22:33N 37°57' W 122°30'5 4.7
2016-Jul-20 21:33N 37°53' W 122°26'5 4.7
2016-Jul-20 20:33N 37°57' W 122°30'9 9.0
2016-Jul-20 19:33N 37°50' W 122°23'9 8.9
2016-Jul-20 18:33N 37°57' W 122°30'6 6.4
2016-Jul-20 17:34N 37°52' W 122°25'4 4.4
2016-Jul-20 16:33N 37°56' W 122°28'0 0.5
2016-Jul-20 15:34N 37°56' W 122°29'9 9.0
2016-Jul-20 14:34N 37°48' W 122°23'3 3.2
2016-Jul-20 13:33N 37°51' W 122°24'8 7.5
2016-Jul-20 12:33N 37°57' W 122°31'  

Dump ship's entire track history